createdAt,value
2018-05-17T00:00:48.096Z,98003.20
2018-05-17T00:03:15.535Z,97998.46
2018-05-17T00:05:42.568Z,97999.04
2018-05-17T00:08:09.590Z,98002.22
2018-05-17T00:10:36.739Z,97994.41
2018-05-17T00:13:03.759Z,98001.09
2018-05-17T00:15:30.758Z,97990.23
2018-05-17T00:17:57.821Z,97988.10
2018-05-17T00:20:24.804Z,97985.05
2018-05-17T00:22:52.024Z,97992.11
2018-05-17T00:25:19.125Z,97992.37
2018-05-17T00:27:46.355Z,97985.19
2018-05-17T00:30:13.421Z,97985.73
2018-05-17T00:32:40.635Z,97987.16
2018-05-17T00:35:07.699Z,97986.58
2018-05-17T00:37:34.709Z,97985.70
2018-05-17T00:40:01.819Z,97985.85
2018-05-17T00:42:29.036Z,97979.54
2018-05-17T00:44:56.212Z,97979.86
2018-05-17T00:47:24.052Z,97982.08
2018-05-17T00:49:51.064Z,97981.04
2018-05-17T00:52:18.230Z,97976.17
2018-05-17T00:54:45.187Z,97977.72
2018-05-17T00:57:12.559Z,97968.82
2018-05-17T00:59:39.949Z,97976.11
2018-05-17T01:02:06.931Z,97970.66
2018-05-17T01:04:33.945Z,97969.22
2018-05-17T01:07:00.959Z,97972.13
2018-05-17T01:09:28.091Z,97963.91
2018-05-17T01:11:55.120Z,97970.50
2018-05-17T01:14:22.645Z,97971.11
2018-05-17T01:16:49.683Z,97963.77
2018-05-17T01:19:16.716Z,97967.06
2018-05-17T01:21:43.705Z,97966.28
2018-05-17T01:24:10.714Z,97972.05
2018-05-17T01:26:37.771Z,97965.30
2018-05-17T01:29:05.321Z,97971.97
2018-05-17T01:31:32.342Z,97962.02
2018-05-17T01:34:00.009Z,97969.02
2018-05-17T01:36:27.099Z,97966.69
2018-05-17T01:38:54.395Z,97975.05
2018-05-17T01:41:21.815Z,97966.43
2018-05-17T01:43:48.851Z,97966.03
2018-05-17T01:46:15.924Z,97975.68
2018-05-17T01:48:42.959Z,97968.45
2018-05-17T01:51:09.956Z,97974.09
2018-05-17T01:53:36.970Z,97981.21
2018-05-17T01:56:04.049Z,97991.42
2018-05-17T01:58:31.093Z,97997.50
2018-05-17T02:00:58.084Z,97962.91
2018-05-17T02:03:25.135Z,97949.02
2018-05-17T02:05:52.195Z,97947.49
2018-05-17T02:08:19.261Z,97953.14
2018-05-17T02:10:46.269Z,97957.58
2018-05-17T02:13:13.444Z,97955.88
2018-05-17T02:15:40.532Z,97943.72
2018-05-17T02:18:07.551Z,97941.02
2018-05-17T02:20:35.231Z,97945.88
2018-05-17T02:23:02.237Z,97946.70
2018-05-17T02:25:29.260Z,97944.91
2018-05-17T02:27:56.355Z,97947.06
2018-05-17T02:30:23.370Z,97956.00
2018-05-17T02:32:50.480Z,97956.92
2018-05-17T02:35:18.012Z,97961.47
2018-05-17T02:37:45.018Z,97956.26
2018-05-17T02:40:12.264Z,97957.90
2018-05-17T02:42:39.281Z,97963.03
2018-05-17T02:45:06.302Z,97961.50
2018-05-17T02:47:33.313Z,97960.55
2018-05-17T02:50:00.324Z,97956.89
2018-05-17T02:52:28.000Z,97964.70
2018-05-17T02:54:54.997Z,97964.01
2018-05-17T02:57:22.115Z,97967.89
2018-05-17T02:59:49.206Z,97968.30
2018-05-17T03:02:16.935Z,97968.58
2018-05-17T03:04:44.155Z,97976.73
2018-05-17T03:07:11.910Z,97974.03
2018-05-17T03:09:39.723Z,97966.65
2018-05-17T03:12:06.752Z,97969.91
2018-05-17T03:14:33.997Z,97971.02
2018-05-17T03:17:01.087Z,97975.81
2018-05-17T03:19:28.266Z,97969.59
2018-05-17T03:21:55.321Z,97974.45
2018-05-17T03:24:22.312Z,97973.27
2018-05-17T03:26:49.533Z,97979.41
2018-05-17T03:29:16.549Z,97971.91
2018-05-17T03:31:43.570Z,97969.59
2018-05-17T03:34:10.628Z,97971.75
2018-05-17T03:36:37.615Z,97973.04
2018-05-17T03:39:04.816Z,97966.98
2018-05-17T03:41:31.820Z,97973.97
2018-05-17T03:43:59.602Z,97975.43
2018-05-17T03:46:27.433Z,97983.99
2018-05-17T03:48:54.497Z,97974.59
2018-05-17T03:51:21.511Z,97974.27
2018-05-17T03:53:48.516Z,97974.52
2018-05-17T03:56:15.580Z,97976.91
2018-05-17T03:58:43.950Z,97977.50
2018-05-17T04:01:16.798Z,97975.56
2018-05-17T04:03:49.557Z,97972.84
2018-05-17T04:09:11.692Z,97977.03
2018-05-17T04:11:38.763Z,97977.34
2018-05-17T04:14:05.805Z,97976.47
2018-05-17T04:16:32.931Z,97977.19
2018-05-17T04:19:00.116Z,97980.39
2018-05-17T04:21:27.157Z,97984.55
2018-05-17T04:23:54.405Z,97986.41
2018-05-17T04:26:21.571Z,97987.95
2018-05-17T04:28:48.682Z,97989.64
2018-05-17T04:31:15.782Z,97993.61
2018-05-17T04:33:42.933Z,97994.29
2018-05-17T04:36:10.011Z,97992.40
2018-05-17T04:38:37.006Z,97996.02
2018-05-17T04:41:04.109Z,97997.86
2018-05-17T04:43:31.132Z,97999.23
2018-05-17T04:45:58.257Z,98001.37
2018-05-17T04:48:25.411Z,97996.94
2018-05-17T04:50:52.419Z,97997.23
2018-05-17T04:53:19.453Z,97996.54
2018-05-17T04:55:46.458Z,98007.00
2018-05-17T04:58:13.611Z,98009.63
2018-05-17T05:00:40.813Z,98007.40
2018-05-17T05:03:08.055Z,98011.95
2018-05-17T05:05:35.675Z,98014.48
2018-05-17T05:08:03.818Z,98019.77
2018-05-17T05:10:30.827Z,98021.61
2018-05-17T05:12:57.861Z,98018.89
2018-05-17T05:15:25.710Z,98023.22
2018-05-17T05:17:52.775Z,98025.69
2018-05-17T05:20:20.032Z,98022.90
2018-05-17T05:22:47.295Z,98034.79
2018-05-17T05:25:14.561Z,98030.65
2018-05-17T05:27:41.692Z,98021.54
2018-05-17T05:30:08.759Z,98019.09
2018-05-17T05:32:36.316Z,98026.30
2018-05-17T05:35:03.776Z,98040.09
2018-05-17T05:37:30.799Z,98045.77
2018-05-17T05:39:57.761Z,98043.61
2018-05-17T05:42:24.771Z,98042.89
2018-05-17T05:44:51.780Z,98044.39
2018-05-17T05:47:18.846Z,98043.69
2018-05-17T05:49:45.853Z,98049.33
2018-05-17T05:52:13.702Z,98046.14
2018-05-17T05:54:40.828Z,98035.58
2018-05-17T05:57:08.383Z,98026.63
2018-05-17T05:59:35.392Z,98012.19
2018-05-17T06:02:02.735Z,98038.89
2018-05-17T06:04:29.897Z,98044.40
2018-05-17T06:06:57.148Z,98037.04
2018-05-17T06:09:24.328Z,98031.70
2018-05-17T06:11:51.432Z,98036.05
2018-05-17T06:14:18.469Z,98035.32
2018-05-17T06:16:45.467Z,98044.44
2018-05-17T06:19:12.574Z,98044.36
2018-05-17T06:21:39.737Z,98045.31
2018-05-17T06:24:06.801Z,98059.80
2018-05-17T06:26:33.975Z,98064.11
2018-05-17T06:29:00.981Z,98059.37
2018-05-17T06:31:27.977Z,98063.36
2018-05-17T06:33:55.113Z,98060.74
2018-05-17T06:36:22.128Z,98063.27
2018-05-17T06:38:49.392Z,98069.66
2018-05-17T06:41:16.442Z,98068.55
2018-05-17T06:43:43.541Z,98067.56
2018-05-17T06:46:10.647Z,98069.73
2018-05-17T06:48:37.968Z,98070.14
2018-05-17T06:51:05.213Z,98074.59
2018-05-17T06:53:32.361Z,98073.52
2018-05-17T06:55:59.397Z,98074.27
2018-05-17T06:58:27.036Z,98071.53
2018-05-17T07:00:54.371Z,98081.09
2018-05-17T07:03:21.342Z,98078.23
2018-05-17T07:05:48.378Z,98086.23
2018-05-17T07:08:15.628Z,98086.39
2018-05-17T07:10:42.631Z,98092.25
2018-05-17T07:13:10.398Z,98092.51
2018-05-17T07:15:38.011Z,98089.55
2018-05-17T07:18:05.340Z,98099.39
2018-05-17T07:20:32.334Z,98107.30
2018-05-17T07:22:59.378Z,98105.94
2018-05-17T07:25:26.386Z,98109.21
2018-05-17T07:27:53.391Z,98107.45
2018-05-17T07:30:20.472Z,98106.09
2018-05-17T07:32:47.722Z,98109.13
2018-05-17T07:35:14.956Z,98116.41
2018-05-17T07:37:42.106Z,98116.27
2018-05-17T07:40:09.153Z,98121.92
2018-05-17T07:42:36.157Z,98125.22
2018-05-17T07:45:03.264Z,98125.12
2018-05-17T07:47:30.407Z,98122.88
2018-05-17T07:49:57.727Z,98123.45
2018-05-17T07:52:24.918Z,98126.58
2018-05-17T07:54:52.026Z,98123.30
2018-05-17T07:57:19.207Z,98127.03
2018-05-17T07:59:46.414Z,98130.24
2018-05-17T08:02:13.414Z,98133.39
2018-05-17T08:04:41.177Z,98136.83
2018-05-17T08:07:08.209Z,98139.45
2018-05-17T08:09:35.239Z,98140.11
2018-05-17T08:12:02.367Z,98145.45
2018-05-17T08:14:29.367Z,98147.75
2018-05-17T08:16:56.377Z,98147.09
2018-05-17T08:19:23.412Z,98141.19
2018-05-17T08:21:50.453Z,98146.09
2018-05-17T08:24:17.648Z,98147.38
2018-05-17T08:26:44.783Z,98152.66
2018-05-17T08:29:11.802Z,98147.66
2018-05-17T08:31:39.344Z,98159.53
2018-05-17T08:34:06.651Z,98159.88
2018-05-17T08:36:33.845Z,98163.71
2018-05-17T08:39:00.803Z,98167.86
2018-05-17T08:41:27.784Z,98170.42
2018-05-17T08:43:54.787Z,98171.05
2018-05-17T08:46:21.975Z,98175.39
2018-05-17T08:48:49.007Z,98184.67
2018-05-17T08:51:16.210Z,98189.57
2018-05-17T08:53:45.008Z,98189.21
2018-05-17T08:56:12.157Z,98190.58
2018-05-17T08:58:39.308Z,98192.74
2018-05-17T09:01:06.619Z,98184.25
2018-05-17T09:03:33.804Z,98190.56
2018-05-17T09:06:00.952Z,98185.83
2018-05-17T09:08:28.119Z,98196.23
2018-05-17T09:10:55.146Z,98193.02
2018-05-17T09:13:22.147Z,98192.78
2018-05-17T09:15:49.247Z,98196.93
2018-05-17T09:18:16.333Z,98204.53
2018-05-17T09:20:43.461Z,98206.38
2018-05-17T09:23:10.452Z,98205.08
2018-05-17T09:25:37.442Z,98212.27
2018-05-17T09:28:04.594Z,98206.92
2018-05-17T09:30:31.835Z,98201.42
2018-05-17T09:32:58.822Z,98206.41
2018-05-17T09:35:26.050Z,98205.13
2018-05-17T09:37:53.090Z,98204.25
2018-05-17T09:40:20.125Z,98197.05
2018-05-17T09:42:47.265Z,98204.20
2018-05-17T09:45:14.402Z,98217.58
2018-05-17T09:47:41.666Z,98218.45
2018-05-17T09:50:09.058Z,98221.57
2018-05-17T09:52:36.477Z,98233.08
2018-05-17T09:55:03.720Z,98235.00
2018-05-17T09:57:30.808Z,98235.03
2018-05-17T09:59:57.817Z,98238.65
2018-05-17T10:02:25.171Z,98237.30
2018-05-17T10:04:52.253Z,98238.37
2018-05-17T10:07:19.297Z,98240.46
2018-05-17T10:09:46.303Z,98242.21
2018-05-17T10:12:13.528Z,98239.84
2018-05-17T10:14:40.607Z,98246.27
2018-05-17T10:17:08.248Z,98242.04
2018-05-17T10:19:35.337Z,98243.11
2018-05-17T10:22:02.673Z,98239.44
2018-05-17T10:24:29.904Z,98237.05
2018-05-17T10:26:57.146Z,98235.89
2018-05-17T10:29:24.463Z,98235.83
2018-05-17T10:31:51.655Z,98242.66
2018-05-17T10:34:18.790Z,98244.31
2018-05-17T10:36:45.920Z,98240.02
2018-05-17T10:39:13.723Z,98246.21
2018-05-17T10:41:40.868Z,98245.20
2018-05-17T10:44:08.108Z,98244.43
2018-05-17T10:46:35.196Z,98239.45
2018-05-17T10:49:02.447Z,98253.57
2018-05-17T10:51:29.522Z,98250.74
2018-05-17T10:53:56.595Z,98252.91
2018-05-17T10:56:23.633Z,98245.70
2018-05-17T10:58:50.667Z,98246.91
2018-05-17T11:01:17.912Z,98252.03
2018-05-17T11:03:45.080Z,98246.69
2018-05-17T11:06:12.151Z,98235.72
2018-05-17T11:08:39.154Z,98241.45
2018-05-17T11:11:06.329Z,98243.36
2018-05-17T11:13:33.394Z,98248.17
2018-05-17T11:16:00.687Z,98247.63
2018-05-17T11:18:27.940Z,98253.21
2018-05-17T11:20:55.009Z,98250.86
2018-05-17T11:23:22.115Z,98254.30
2018-05-17T11:25:49.447Z,98251.75
2018-05-17T11:28:16.398Z,98261.03
2018-05-17T11:30:43.438Z,98253.75
2018-05-17T11:33:10.621Z,98248.81
2018-05-17T11:35:37.846Z,98253.91
2018-05-17T11:38:05.154Z,98251.55
2018-05-17T11:40:32.399Z,98248.47
2018-05-17T11:42:59.443Z,98252.41
2018-05-17T11:45:26.784Z,98245.88
2018-05-17T11:47:53.806Z,98248.77
2018-05-17T11:50:21.811Z,98253.13
2018-05-17T11:52:48.892Z,98252.56
2018-05-17T11:55:15.914Z,98251.02
2018-05-17T11:57:43.021Z,98251.05
2018-05-17T12:00:10.124Z,98259.69
2018-05-17T12:02:37.363Z,98260.10
2018-05-17T12:05:04.389Z,98258.23
2018-05-17T12:07:31.648Z,98260.84
2018-05-17T12:09:58.668Z,98252.88
2018-05-17T12:12:25.983Z,98257.75
2018-05-17T12:14:53.917Z,98253.03
2018-05-17T12:17:21.040Z,98250.21
2018-05-17T12:19:48.064Z,98254.83
2018-05-17T12:22:15.129Z,98258.98
2018-05-17T12:24:42.174Z,98263.36
2018-05-17T12:27:09.238Z,98260.16
2018-05-17T12:29:36.289Z,98262.15
2018-05-17T12:32:03.365Z,98257.13
2018-05-17T12:34:30.421Z,98255.70
2018-05-17T12:36:57.605Z,98254.70
2018-05-17T12:39:24.613Z,98256.72
2018-05-17T12:41:51.642Z,98258.91
2018-05-17T12:44:18.658Z,98258.31
2018-05-17T12:46:45.725Z,98258.70
2018-05-17T12:49:12.844Z,98253.09
2018-05-17T12:51:40.527Z,98256.23
2018-05-17T12:54:07.932Z,98258.68
2018-05-17T12:56:35.584Z,98255.04
2018-05-17T12:59:02.665Z,98255.03
2018-05-17T13:01:30.123Z,98254.67
2018-05-17T13:03:57.214Z,98256.14
2018-05-17T13:06:24.414Z,98255.36
2018-05-17T13:08:51.486Z,98253.27
2018-05-17T13:11:18.505Z,98254.68
2018-05-17T13:13:45.687Z,98255.92
2018-05-17T13:16:12.718Z,98254.12
2018-05-17T13:18:40.564Z,98251.44
2018-05-17T13:21:07.572Z,98252.69
2018-05-17T13:23:34.971Z,98258.95
2018-05-17T13:26:02.055Z,98248.92
2018-05-17T13:28:29.191Z,98253.39
2018-05-17T13:30:56.591Z,98257.72
2018-05-17T13:33:23.780Z,98259.22
2018-05-17T13:35:50.909Z,98258.92
2018-05-17T13:38:17.907Z,98256.75
2018-05-17T13:40:44.963Z,98254.90
2018-05-17T13:43:12.243Z,98256.73
2018-05-17T13:45:39.404Z,98254.28
2018-05-17T13:48:06.563Z,98253.88
2018-05-17T13:50:33.561Z,98253.78
2018-05-17T13:53:00.700Z,98259.80
2018-05-17T13:55:27.822Z,98257.60
2018-05-17T13:57:54.989Z,98247.63
2018-05-17T14:00:22.460Z,98250.47
2018-05-17T14:02:49.507Z,98252.10
2018-05-17T14:05:16.530Z,98258.09
2018-05-17T14:07:44.639Z,98255.41
2018-05-17T14:10:11.664Z,98259.08
2018-05-17T14:12:38.680Z,98257.03
2018-05-17T14:15:05.768Z,98258.56
2018-05-17T14:17:32.783Z,98258.26
2018-05-17T14:19:59.934Z,98260.16
2018-05-17T14:22:26.938Z,98258.44
2018-05-17T14:24:53.950Z,98259.06
2018-05-17T14:27:20.946Z,98263.27
2018-05-17T14:29:48.084Z,98265.60
2018-05-17T14:32:15.104Z,98270.53
2018-05-17T14:34:42.125Z,98258.44
2018-05-17T14:37:09.201Z,98262.30
2018-05-17T14:39:36.225Z,98258.44
2018-05-17T14:42:03.305Z,98268.17
2018-05-17T14:44:30.834Z,98261.36
2018-05-17T14:46:57.907Z,98272.02
2018-05-17T14:49:25.069Z,98275.83
2018-05-17T14:51:52.135Z,98275.97
2018-05-17T14:54:19.264Z,98288.73
2018-05-17T14:56:46.404Z,98280.97
2018-05-17T14:59:13.553Z,98284.00
2018-05-17T15:01:40.999Z,98279.70
2018-05-17T15:04:08.085Z,98281.00
2018-05-17T15:06:35.223Z,98273.50
2018-05-17T15:09:02.450Z,98272.81
2018-05-17T15:11:29.505Z,98275.72
2018-05-17T15:13:56.561Z,98278.44
2018-05-17T15:16:23.572Z,98276.45
2018-05-17T15:18:50.644Z,98277.31
2018-05-17T15:21:17.735Z,98275.27
2018-05-17T15:23:45.439Z,98276.06
2018-05-17T15:26:12.460Z,98276.92
2018-05-17T15:28:39.492Z,98275.77
2018-05-17T15:31:07.091Z,98278.95
2018-05-17T15:33:34.369Z,98263.73
2018-05-17T15:36:01.400Z,98265.23
2018-05-17T15:38:28.447Z,98269.17
2018-05-17T15:40:55.504Z,98264.21
2018-05-17T15:43:22.486Z,98266.59
2018-05-17T15:45:49.654Z,98266.16
2018-05-17T15:48:16.798Z,98271.64
2018-05-17T15:50:43.837Z,98266.77
2018-05-17T15:53:10.891Z,98268.66
2018-05-17T15:55:38.001Z,98268.63
2018-05-17T15:58:05.041Z,98272.91
2018-05-17T16:00:32.064Z,98266.61
2018-05-17T16:02:59.109Z,98267.14
2018-05-17T16:05:26.151Z,98265.02
2018-05-17T16:07:53.209Z,98265.70
2018-05-17T16:10:20.216Z,98268.23
2018-05-17T16:12:47.241Z,98262.27
2018-05-17T16:15:14.551Z,98267.45
2018-05-17T16:17:41.544Z,98266.03
2018-05-17T16:20:08.674Z,98271.42
2018-05-17T16:22:35.700Z,98278.56
2018-05-17T16:25:02.710Z,98273.88
2018-05-17T16:27:29.764Z,98275.02
2018-05-17T16:29:56.783Z,98273.61
2018-05-17T16:32:23.852Z,98270.03
2018-05-17T16:34:50.996Z,98267.03
2018-05-17T16:37:18.008Z,98270.47
2018-05-17T16:39:45.051Z,98267.94
2018-05-17T16:42:12.201Z,98269.30
2018-05-17T16:44:39.305Z,98274.83
2018-05-17T16:47:06.347Z,98280.19
2018-05-17T16:49:33.395Z,98275.95
2018-05-17T16:52:00.472Z,98281.41
2018-05-17T16:54:27.774Z,98278.17
2018-05-17T16:56:54.935Z,98281.45
2018-05-17T16:59:22.151Z,98285.20
2018-05-17T17:01:49.241Z,98285.97
2018-05-17T17:04:16.480Z,98285.35
2018-05-17T17:06:44.323Z,98288.63
2018-05-17T17:09:11.266Z,98278.36
2018-05-17T17:11:38.546Z,98289.67
2018-05-17T17:14:05.556Z,98288.95
2018-05-17T17:16:32.666Z,98284.46
2018-05-17T17:18:59.753Z,98285.94
2018-05-17T17:21:26.771Z,98294.20
2018-05-17T17:23:53.929Z,98295.80
2018-05-17T17:26:21.176Z,98299.44
2018-05-17T17:28:49.224Z,98296.67
2018-05-17T17:31:16.506Z,98299.44
2018-05-17T17:33:43.617Z,98297.95
2018-05-17T17:36:10.642Z,98298.53
2018-05-17T17:38:37.683Z,98308.14
2018-05-17T17:41:04.770Z,98304.69
2018-05-17T17:43:31.821Z,98309.25
2018-05-17T17:45:58.842Z,98307.31
2018-05-17T17:48:26.150Z,98308.41
2018-05-17T17:50:53.217Z,98309.33
2018-05-17T17:53:20.290Z,98311.75
2018-05-17T17:55:47.376Z,98311.58
2018-05-17T17:58:14.401Z,98315.39
2018-05-17T18:00:41.468Z,98315.23
2018-05-17T18:03:08.617Z,98316.45
2018-05-17T18:05:35.695Z,98313.30
2018-05-17T18:08:02.791Z,98309.06
2018-05-17T18:10:30.967Z,98309.30
2018-05-17T18:12:58.110Z,98310.20
2018-05-17T18:15:25.803Z,98314.44
2018-05-17T18:17:52.839Z,98313.88
2018-05-17T18:20:20.066Z,98308.43
2018-05-17T18:22:47.263Z,98310.81
2018-05-17T18:25:14.470Z,98309.59
2018-05-17T18:27:41.672Z,98298.02
2018-05-17T18:30:09.067Z,98309.83
2018-05-17T18:32:36.165Z,98312.25
2018-05-17T18:35:03.283Z,98311.35
2018-05-17T18:37:30.304Z,98309.89
2018-05-17T18:39:57.370Z,98307.88
2018-05-17T18:42:24.401Z,98312.38
2018-05-17T18:44:51.609Z,98313.03
2018-05-17T18:47:18.778Z,98318.74
2018-05-17T18:49:45.926Z,98314.80
2018-05-17T18:52:12.987Z,98323.21
2018-05-17T18:54:40.079Z,98321.30
2018-05-17T18:57:07.113Z,98322.42
2018-05-17T18:59:34.115Z,98324.35
2018-05-17T19:02:01.211Z,98324.28
2018-05-17T19:04:28.317Z,98328.19
2018-05-17T19:06:55.356Z,98323.59
2018-05-17T19:09:22.481Z,98334.10
2018-05-17T19:11:49.876Z,98332.02
2018-05-17T19:14:17.078Z,98340.48
2018-05-17T19:16:44.117Z,98341.48
2018-05-17T19:19:11.875Z,98345.45
2018-05-17T19:21:39.022Z,98345.72
2018-05-17T19:24:06.137Z,98356.52
2018-05-17T19:26:33.185Z,98360.58
2018-05-17T19:29:00.326Z,98364.54
2018-05-17T19:31:27.520Z,98369.54
2018-05-17T19:33:54.599Z,98363.63
2018-05-17T19:36:21.688Z,98367.78
2018-05-17T19:38:48.896Z,98378.46
2018-05-17T19:41:16.896Z,98381.61
2018-05-17T19:43:44.033Z,98382.72
2018-05-17T19:46:11.173Z,98379.89
2018-05-17T19:48:38.399Z,98387.64
2018-05-17T19:51:05.465Z,98385.30
2018-05-17T19:53:32.763Z,98391.10
2018-05-17T19:56:01.946Z,98392.70
2018-05-17T19:58:29.011Z,98388.98
2018-05-17T20:00:56.152Z,98392.61
2018-05-17T20:03:23.352Z,98390.41
2018-05-17T20:05:50.867Z,98391.63
2018-05-17T20:08:17.948Z,98393.55
2018-05-17T20:10:46.287Z,98402.63
2018-05-17T20:13:14.098Z,98396.63
2018-05-17T20:15:41.931Z,98400.25
2018-05-17T20:18:09.013Z,98400.79
2018-05-17T20:20:36.066Z,98402.01
2018-05-17T20:23:03.712Z,98400.66
2018-05-17T20:25:30.857Z,98397.57
2018-05-17T20:27:58.068Z,98399.77
2018-05-17T20:30:25.147Z,98404.36
2018-05-17T20:32:52.213Z,98405.80
2018-05-17T20:35:19.370Z,98404.91
2018-05-17T20:37:46.454Z,98405.75
2018-05-17T20:40:13.595Z,98408.89
2018-05-17T20:42:40.691Z,98412.20
2018-05-17T20:45:07.995Z,98407.69
2018-05-17T20:47:35.084Z,98411.66
2018-05-17T20:50:02.453Z,98409.55
2018-05-17T20:52:29.788Z,98413.94
2018-05-17T20:54:57.010Z,98415.20
2018-05-17T20:57:24.051Z,98416.07
2018-05-17T20:59:51.441Z,98419.09
2018-05-17T21:02:19.221Z,98412.65
2018-05-17T21:04:46.311Z,98410.16
2018-05-17T21:07:17.051Z,98415.42
2018-05-17T21:09:44.132Z,98414.64
2018-05-17T21:12:11.172Z,98405.75
2018-05-17T21:14:38.215Z,98406.22
2018-05-17T21:17:05.255Z,98409.00
2018-05-17T21:19:32.485Z,98410.62
2018-05-17T21:21:59.651Z,98412.11
2018-05-17T21:24:26.654Z,98412.76
2018-05-17T21:26:53.867Z,98417.11
2018-05-17T21:29:21.027Z,98420.89
2018-05-17T21:31:48.163Z,98413.38
2018-05-17T21:34:15.220Z,98419.06
2018-05-17T21:36:42.202Z,98416.61
2018-05-17T21:39:09.936Z,98416.92
2018-05-17T21:41:37.063Z,98417.19
2018-05-17T21:44:04.166Z,98425.81
2018-05-17T21:46:31.388Z,98423.95
2018-05-17T21:48:58.437Z,98421.04
2018-05-17T21:51:25.614Z,98427.19
2018-05-17T21:53:52.971Z,98426.81
2018-05-17T21:56:19.964Z,98427.03
2018-05-17T21:58:46.967Z,98425.77
2018-05-17T22:04:30.724Z,98423.67
2018-05-17T22:06:58.339Z,98422.94
2018-05-17T22:09:25.942Z,98417.45
2018-05-17T22:11:53.646Z,98419.93
2018-05-17T22:14:21.207Z,98421.98
2018-05-17T22:16:48.692Z,98422.67
2018-05-17T22:19:16.394Z,98419.75
2018-05-17T22:21:43.418Z,98420.03
2018-05-17T22:24:10.446Z,98416.81
2018-05-17T22:26:37.488Z,98415.21
2018-05-17T22:29:04.681Z,98422.41
2018-05-17T22:31:31.794Z,98415.81
2018-05-17T22:33:59.269Z,98422.85
2018-05-17T22:36:26.719Z,98418.42
2018-05-17T22:38:54.208Z,98414.84
2018-05-17T22:41:21.703Z,98415.09
2018-05-17T22:43:48.707Z,98416.34
2018-05-17T22:46:16.126Z,98417.03
2018-05-17T22:48:43.911Z,98415.03
2018-05-17T22:51:11.126Z,98410.98
2018-05-17T22:53:38.143Z,98415.80
2018-05-17T22:56:05.257Z,98410.02
2018-05-17T22:58:33.469Z,98411.23
2018-05-17T23:01:00.677Z,98400.52
2018-05-17T23:03:27.811Z,98404.04
2018-05-17T23:05:54.839Z,98406.51
2018-05-17T23:08:21.996Z,98405.83
2018-05-17T23:10:49.312Z,98403.14
2018-05-17T23:13:16.395Z,98406.36
2018-05-17T23:15:43.902Z,98405.84
2018-05-17T23:18:11.196Z,98408.16
2018-05-17T23:20:38.260Z,98408.83
2018-05-17T23:23:05.304Z,98416.25
2018-05-17T23:25:32.456Z,98421.93
2018-05-17T23:27:59.706Z,98418.12
2018-05-17T23:30:26.914Z,98414.88
2018-05-17T23:32:54.207Z,98417.19
2018-05-17T23:35:21.426Z,98413.56
2018-05-17T23:37:48.904Z,98414.75
2018-05-17T23:40:21.827Z,98406.95
2018-05-17T23:42:48.912Z,98404.11
2018-05-17T23:45:16.313Z,98410.48
2018-05-17T23:47:43.368Z,98409.67
2018-05-17T23:50:10.438Z,98395.39
2018-05-17T23:52:37.563Z,98395.56
2018-05-17T23:55:04.639Z,98395.03
2018-05-17T23:57:31.748Z,98397.45
2018-05-17T23:59:58.892Z,98401.08
